CDT,Max TemperatureF,Mean TemperatureF,Min TemperatureF,Max Dew PointF,MeanDew PointF,Min DewpointF,Max Humidity, Mean Humidity, Min Humidity, Max Sea Level PressureIn, Mean Sea Level PressureIn, Min Sea Level PressureIn, Max VisibilityMiles, Mean VisibilityMiles, Min VisibilityMiles, Max Wind SpeedMPH, Mean Wind SpeedMPH, Max Gust SpeedMPH,PrecipitationIn, CloudCover, Events, WindDirDegrees
2013-10-1,79,69,59,64,61,54,95,79,51,29.99,29.96,29.92,10,8,3,13,6,21,0.00,3,,210
2013-10-2,80,71,62,64,53,39,97,63,26,30.11,30.04,29.99,10,7,0,13,4,,0.00,3,Fog,72
2013-10-3,78,70,61,69,65,60,97,88,68,30.00,29.94,29.86,10,6,1,12,3,17,0.24,5,Rain-Thunderstorm,174
2013-10-4,79,72,64,69,65,61,94,85,68,30.00,29.96,29.93,10,8,2,8,3,,0.12,3,,128
2013-10-5,81,72,64,69,67,61,96,87,62,29.96,29.88,29.78,10,8,0,13,4,34,0.83,4,Rain-Thunderstorm,186
2013-10-6,60,52,41,60,44,37,92,72,45,29.82,29.78,29.72,10,10,4,13,6,21,0.06,5,Rain,247
2013-10-7,68,55,42,47,43,40,94,72,36,30.10,29.94,29.80,10,10,4,10,5,22,0.00,3,Rain,272
2013-10-8,75,58,42,50,45,42,98,68,30,30.21,30.16,30.10,10,9,0,8,1,,0.00,0,Fog,167
2013-10-9,72,58,43,49,44,36,97,67,27,30.26,30.20,30.15,10,10,5,9,2,,0.00,0,,113
2013-10-10,74,58,42,53,49,42,99,74,44,30.19,30.13,30.06,10,8,0,7,1,,0.00,0,Fog,129
2013-10-11,76,64,53,55,50,48,84,64,39,30.10,30.04,29.97,10,10,7,13,4,17,0.00,1,,146
2013-10-12,68,56,45,62,53,42,94,76,55,30.21,30.04,29.99,10,10,5,9,4,,0.02,2,Rain,183
2013-10-13,63,50,36,43,37,31,98,69,31,30.42,30.34,30.22,10,9,0,9,2,,0.00,0,Fog,340
2013-10-14,64,50,36,46,41,35,97,73,41,30.41,30.31,30.14,10,9,1,13,4,16,0.00,0,,90
2013-10-15,64,57,50,61,50,43,95,80,66,30.14,29.93,29.80,10,8,2,14,8,20,0.05,3,Rain,175
2013-10-16,53,48,44,44,42,40,84,75,69,29.97,29.92,29.89,10,10,10,14,7,20,0.00,7,,251
2013-10-17,56,46,36,47,43,36,98,87,51,29.96,29.90,29.85,10,7,0,10,4,18,0.11,5,Fog-Rain,258
2013-10-18,49,42,34,42,37,34,99,81,60,29.99,29.94,29.86,10,8,0,14,3,18,0.00,5,Fog,259
2013-10-19,53,47,41,40,36,29,86,67,39,29.96,29.87,29.82,10,10,10,15,6,24,0.00,6,Rain,238
2013-10-20,65,50,34,49,40,33,97,72,35,29.90,29.83,29.73,10,9,1,13,4,20,0.02,4,Rain,199
2013-10-21,54,43,31,48,33,22,90,66,40,30.01,29.93,29.82,10,10,10,16,6,23,0.04,4,Rain,273
2013-10-22,40,31,22,36,29,20,96,86,54,30.01,29.98,29.93,10,8,3,5,1,,0.16,3,Rain,26
2013-10-23,44,36,28,32,29,24,100,75,47,30.05,29.99,29.92,10,9,1,14,3,20,0.01,4,Rain,295
2013-10-24,43,37,31,32,25,19,83,63,41,30.32,30.18,30.04,10,10,10,10,5,20,0.00,6,,292
2013-10-25,51,36,22,28,25,20,95,63,35,30.43,30.30,30.09,10,10,10,17,3,22,0.00,1,,229
2013-10-26,55,42,30,34,29,26,91,57,38,30.11,29.98,29.89,10,10,10,15,9,25,0.00,4,,261
2013-10-27,54,39,24,32,28,24,97,73,34,30.09,30.05,29.99,10,10,7,13,2,16,0.00,0,,232
2013-10-28,57,42,28,43,36,27,97,79,54,30.36,30.24,30.09,10,10,5,15,3,20,0.00,0,,35
2013-10-29,56,47,39,46,39,37,91,73,52,30.35,30.26,30.15,10,9,5,9,5,,0.00,2,Rain,107
2013-10-30,63,51,40,62,51,40,99,96,87,30.14,30.02,29.78,7,2,0,8,3,18,0.64,8,Fog-Rain-Thunderstorm,129
2013-10-31,64,54,45,62,56,41,96,92,83,29.77,29.50,29.24,10,7,2,17,10,29,0.89,8,Rain,224